Observation data for Brownfield on 06/14/2019      Previous  Date       Current Mesonet Observations  Soil Data  Daily Summary Page  Observations in Plain Language
KBWS 140500Z 18018G24KT 24/16 A3002 RMK A01 T02420157  RH  061%=      5-min Rain = 0
KBWS 140505Z 18018G24KT 24/16 A3002 RMK A01 T02410158  RH  061%=      5-min Rain = 0
KBWS 140510Z 18018KT 24/16 A3002 RMK A01 T02410158  RH  061%=      5-min Rain = 0
KBWS 140515Z 18017KT 24/16 A3002 RMK A01 T02400158  RH  061%=      5-min Rain = 0
KBWS 140520Z 18017G22KT 24/16 A3002 RMK A01 T02400159  RH  062%=      5-min Rain = 0
KBWS 140525Z 18018G23KT 24/16 A3002 RMK A01 T02390160  RH  062%=      5-min Rain = 0
KBWS 140530Z 18018G23KT 24/16 A3002 RMK A01 T02390160  RH  063%=      5-min Rain = 0
KBWS 140535Z 18018KT 24/16 A3002 RMK A01 T02390161  RH  063%=      5-min Rain = 0
KBWS 140540Z 18019G24KT 24/16 A3001 RMK A01 T02380162  RH  064%=      5-min Rain = 0
KBWS 140545Z 18019G25KT 24/16 A3001 RMK A01 T02380162  RH  064%=      5-min Rain = 0
KBWS 140550Z 18018G23KT 24/16 A3001 RMK A01 T02370162  RH  064%=      5-min Rain = 0
KBWS 140555Z 18016KT 24/16 A3001 RMK A01 T02360163  RH  065%=      5-min Rain = 0
KBWS 140600Z 18015KT 24/16 A3001 RMK A01 T02350163  RH  065%=      5-min Rain = 0
KBWS 140605Z 18016G21KT 24/16 A3001 RMK A01 T02350164  RH  066%=      5-min Rain = 0
KBWS 140610Z 18015KT 23/16 A3001 RMK A01 T02340164  RH  066%=      5-min Rain = 0
KBWS 140615Z 18016G21KT 23/16 A3001 RMK A01 T02330164  RH  067%=      5-min Rain = 0
KBWS 140620Z 18015KT 23/17 A3001 RMK A01 T02320165  RH  067%=      5-min Rain = 0
KBWS 140625Z 18016KT 23/17 A3001 RMK A01 T02310165  RH  068%=      5-min Rain = 0
KBWS 140630Z 19016KT 23/17 A3001 RMK A01 T02310166  RH  068%=      5-min Rain = 0
KBWS 140635Z 19016KT 23/17 A3001 RMK A01 T02310166  RH  069%=      5-min Rain = 0
KBWS 140640Z 19015G21KT 23/17 A3002 RMK A01 T02310167  RH  069%=      5-min Rain = 0
KBWS 140645Z 19016KT 23/17 A3002 RMK A01 T02310168  RH  069%=      5-min Rain = 0
KBWS 140650Z 19016G21KT 23/17 A3002 RMK A01 T02300169  RH  070%=      5-min Rain = 0
KBWS 140655Z 19017KT 23/17 A3001 RMK A01 T02290170  RH  071%=      5-min Rain = 0
KBWS 140700Z 19017G22KT 23/17 A30 RMK A01 T02300171  RH  071%=      5-min Rain = 0
KBWS 140705Z 19016KT 23/17 A30 RMK A01 T02290172  RH  072%=      5-min Rain = 0
KBWS 140710Z 19014G19KT 23/17 A30 RMK A01 T02280172  RH  072%=      5-min Rain = 0
KBWS 140715Z 19016KT 23/17 A30 RMK A01 T02280173  RH  072%=      5-min Rain = 0
KBWS 140720Z 19015KT 23/17 A30 RMK A01 T02280173  RH  073%=      5-min Rain = 0
KBWS 140725Z 19014KT 23/17 A30 RMK A01 T02270173  RH  073%=      5-min Rain = 0
KBWS 140730Z 19015KT 23/17 A30 RMK A01 T02260173  RH  074%=      5-min Rain = 0
KBWS 140735Z 19014KT 23/17 A30 RMK A01 T02250173  RH  074%=      5-min Rain = 0
KBWS 140740Z 18013KT 22/17 A2999 RMK A01 T02240172  RH  074%=      5-min Rain = 0
KBWS 140745Z 18013KT 22/17 A2999 RMK A01 T02230172  RH  075%=      5-min Rain = 0
KBWS 140750Z 18013KT 22/17 A2999 RMK A01 T02220172  RH  075%=      5-min Rain = 0
KBWS 140755Z 18012KT 22/17 A2999 RMK A01 T02210172  RH  076%=      5-min Rain = 0
KBWS 140800Z 17013KT 22/17 A2998 RMK A01 T02210172  RH  076%=      5-min Rain = 0
KBWS 140805Z 17010KT 22/17 A2998 RMK A01 T02190172  RH  076%=      5-min Rain = 0
KBWS 140810Z 17010KT 22/17 A2998 RMK A01 T02180171  RH  077%=      5-min Rain = 0
KBWS 140815Z 17010KT 22/17 A2998 RMK A01 T02170171  RH  077%=      5-min Rain = 0
KBWS 140820Z 16009KT 22/17 A2997 RMK A01 T02160171  RH  077%=      5-min Rain = 0
KBWS 140825Z 16008KT 21/17 A2997 RMK A01 T02140171  RH  078%=      5-min Rain = 0
KBWS 140830Z 16008KT 21/17 A2997 RMK A01 T02130170  RH  078%=      5-min Rain = 0
KBWS 140835Z 15008KT 21/17 A2997 RMK A01 T02120170  RH  079%=      5-min Rain = 0
KBWS 140840Z 15008KT 21/17 A2997 RMK A01 T02110169  RH  079%=      5-min Rain = 0
KBWS 140845Z 15008KT 21/17 A2996 RMK A01 T02100169  RH  079%=      5-min Rain = 0
KBWS 140850Z 15008KT 21/17 A2996 RMK A01 T02100168  RH  079%=      5-min Rain = 0
KBWS 140855Z 15008KT 21/17 A2996 RMK A01 T02100168  RH  079%=      5-min Rain = 0
KBWS 140900Z 16008KT 21/17 A2996 RMK A01 T02090169  RH  079%=      5-min Rain = 0
KBWS 140905Z 17008KT 21/17 A2996 RMK A01 T02090168  RH  079%=      5-min Rain = 0
KBWS 140910Z 17008KT 21/17 A2996 RMK A01 T02090168  RH  079%=      5-min Rain = 0
KBWS 140915Z 17008KT 21/17 A2997 RMK A01 T02080167  RH  079%=      5-min Rain = 0
KBWS 140920Z 17008KT 21/17 A2997 RMK A01 T02060167  RH  080%=      5-min Rain = 0
KBWS 140925Z 16008KT 21/17 A2997 RMK A01 T02050167  RH  081%=      5-min Rain = 0
KBWS 140930Z 16007KT 20/17 A2997 RMK A01 T02030168  RH  082%=      5-min Rain = 0
KBWS 140935Z 16007KT 20/17 A2997 RMK A01 T02030168  RH  082%=      5-min Rain = 0
KBWS 140940Z 16007KT 20/17 A2997 RMK A01 T02020167  RH  082%=      5-min Rain = 0
KBWS 140945Z 16007KT 20/17 A2997 RMK A01 T02010167  RH  083%=      5-min Rain = 0
KBWS 140950Z 17007KT 20/17 A2997 RMK A01 T02010166  RH  082%=      5-min Rain = 0
KBWS 140955Z 17008KT 20/17 A2997 RMK A01 T02010166  RH  082%=      5-min Rain = 0
KBWS 141000Z 17007KT 20/17 A2998 RMK A01 T02000166  RH  082%=      5-min Rain = 0
KBWS 141005Z 17007KT 20/17 A2997 RMK A01 T01990165  RH  083%=      5-min Rain = 0
KBWS 141010Z 17008KT 20/17 A2997 RMK A01 T01980165  RH  083%=      5-min Rain = 0
KBWS 141015Z 17008KT 20/17 A2997 RMK A01 T01980165  RH  083%=      5-min Rain = 0
KBWS 141020Z 16007KT 20/17 A2997 RMK A01 T01980165  RH  083%=      5-min Rain = 0
KBWS 141025Z 16007KT 20/16 A2997 RMK A01 T01980164  RH  083%=      5-min Rain = 0
KBWS 141030Z 16008KT 20/16 A2998 RMK A01 T01980164  RH  082%=      5-min Rain = 0
KBWS 141035Z 15008KT 20/16 A2998 RMK A01 T01990164  RH  082%=      5-min Rain = 0
KBWS 141040Z 14006KT 20/16 A2998 RMK A01 T01980163  RH  082%=      5-min Rain = 0
KBWS 141045Z 14006KT 20/16 A2998 RMK A01 T01980162  RH  082%=      5-min Rain = 0
KBWS 141050Z 14006KT 20/16 A2999 RMK A01 T01990161  RH  081%=      5-min Rain = 0
KBWS 141055Z 13006KT 20/16 A2999 RMK A01 T01990159  RH  080%=      5-min Rain = 0
KBWS 141100Z 13007KT 20/16 A2999 RMK A01 T01970160  RH  081%=      5-min Rain = 0
KBWS 141105Z 12008KT 20/16 A2999 RMK A01 T01950160  RH  082%=      5-min Rain = 0
KBWS 141110Z 12010KT 20/16 A2999 RMK A01 T01960162  RH  083%=      5-min Rain = 0
KBWS 141115Z 12011KT 20/16 A2999 RMK A01 T01960163  RH  083%=      5-min Rain = 0
KBWS 141120Z 11010KT 20/16 A2999 RMK A01 T01960163  RH  083%=      5-min Rain = 0
KBWS 141125Z 11010KT 20/16 A2999 RMK A01 T01960161  RH  082%=      5-min Rain = 0
KBWS 141130Z 13009KT 20/16 A30 RMK A01 T01950160  RH  082%=      5-min Rain = 0
KBWS 141135Z 15010KT 19/16 A30 RMK A01 T01940158  RH  081%=      5-min Rain = 0
KBWS 141140Z 16012KT 19/16 A2999 RMK A01 T01940156  RH  081%=      5-min Rain = 0
KBWS 141145Z 16012KT 19/16 A2999 RMK A01 T01940155  RH  080%=      5-min Rain = 0
KBWS 141150Z 16013KT 20/16 A2999 RMK A01 T01950155  RH  080%=      5-min Rain = 0
KBWS 141155Z 16012KT 19/16 A2998 RMK A01 T01940155  RH  080%=      5-min Rain = 0
KBWS 141200Z 16012KT 20/16 A2999 RMK A01 T01950156  RH  080%=      5-min Rain = 0
KBWS 141205Z 16010G15KT 20/16 A2999 RMK A01 T01960157  RH  080%=      5-min Rain = 0
KBWS 141210Z 16010KT 20/16 A2999 RMK A01 T01970158  RH  080%=      5-min Rain = 0
KBWS 141215Z 16010KT 20/16 A30 RMK A01 T01980159  RH  080%=      5-min Rain = 0
KBWS 141220Z 16010KT 20/16 A30 RMK A01 T01990160  RH  080%=      5-min Rain = 0
KBWS 141225Z 16010KT 20/16 A30 RMK A01 T02000161  RH  080%=      5-min Rain = 0
KBWS 141230Z 16011KT 20/16 A30 RMK A01 T02030161  RH  079%=      5-min Rain = 0
KBWS 141235Z 17010KT 21/16 A30 RMK A01 T02050161  RH  078%=      5-min Rain = 0
KBWS 141240Z 17011KT 21/16 A30 RMK A01 T02060162  RH  077%=      5-min Rain = 0
KBWS 141245Z 17011KT 21/16 A30 RMK A01 T02050162  RH  078%=      5-min Rain = 0
KBWS 141250Z 18009KT 21/16 A30 RMK A01 T02050162  RH  078%=      5-min Rain = 0
KBWS 141255Z 18009KT 21/16 A2999 RMK A01 T02070162  RH  077%=      5-min Rain = 0
KBWS 141300Z 18009KT 21/16 A2999 RMK A01 T02070162  RH  077%=      5-min Rain = 0
KBWS 141305Z 17009KT 21/16 A2999 RMK A01 T02070162  RH  077%=      5-min Rain = 0
KBWS 141310Z 16010KT 21/16 A2999 RMK A01 T02090163  RH  077%=      5-min Rain = 0
KBWS 141315Z 16010KT 21/16 A2999 RMK A01 T02100163  RH  076%=      5-min Rain = 0
KBWS 141320Z 16010KT 21/16 A2999 RMK A01 T02110162  RH  075%=      5-min Rain = 0
KBWS 141325Z 16010KT 21/16 A2999 RMK A01 T02120162  RH  075%=      5-min Rain = 0
KBWS 141330Z 17009KT 21/16 A2999 RMK A01 T02130160  RH  074%=      5-min Rain = 0
KBWS 141335Z 16011KT 21/16 A2998 RMK A01 T02130158  RH  073%=      5-min Rain = 0
KBWS 141340Z 16011KT 21/16 A2999 RMK A01 T02140157  RH  072%=      5-min Rain = 0
KBWS 141345Z 16010KT 21/16 A2999 RMK A01 T02140157  RH  072%=      5-min Rain = 0
KBWS 141350Z 16010KT 22/16 A2999 RMK A01 T02150158  RH  071%=      5-min Rain = 0
KBWS 141355Z 16011KT 22/16 A2999 RMK A01 T02160158  RH  071%=      5-min Rain = 0
KBWS 141400Z 16012KT 22/16 A2999 RMK A01 T02170159  RH  071%=      5-min Rain = 0
KBWS 141405Z 17013KT 22/16 A2999 RMK A01 T02170159  RH  071%=      5-min Rain = 0
KBWS 141410Z 18012KT 22/16 A2998 RMK A01 T02200160  RH  071%=      5-min Rain = 0
KBWS 141415Z 17014KT 22/16 A2998 RMK A01 T02220161  RH  070%=      5-min Rain = 0
KBWS 141420Z 18014KT 22/16 A2998 RMK A01 T02220160  RH  070%=      5-min Rain = 0
KBWS 141425Z 18014KT 22/16 A2998 RMK A01 T02230161  RH  069%=      5-min Rain = 0
KBWS 141430Z 18013KT 22/16 A2998 RMK A01 T02240160  RH  068%=      5-min Rain = 0
KBWS 141435Z 18013KT 23/16 A2998 RMK A01 T02250160  RH  068%=      5-min Rain = 0
KBWS 141440Z 17014KT 23/16 A2999 RMK A01 T02260160  RH  068%=      5-min Rain = 0
KBWS 141445Z 17015KT 23/16 A2999 RMK A01 T02250160  RH  068%=      5-min Rain = 0
KBWS 141450Z 18013KT 23/16 A2999 RMK A01 T02260160  RH  068%=      5-min Rain = 0
KBWS 141455Z 18013KT 23/16 A2999 RMK A01 T02290161  RH  067%=      5-min Rain = 0
KBWS 141500Z 18015KT 23/16 A2999 RMK A01 T02330162  RH  066%=      5-min Rain = 0
KBWS 141505Z 18015KT 24/16 A2999 RMK A01 T02410161  RH  062%=      5-min Rain = 0
KBWS 141510Z 18014KT 24/16 A2999 RMK A01 T02440160  RH  061%=      5-min Rain = 0
KBWS 141515Z 18013KT 24/16 A2999 RMK A01 T02440157  RH  060%=      5-min Rain = 0
KBWS 141520Z 19013KT 25/16 A2999 RMK A01 T02470158  RH  059%=      5-min Rain = 0
KBWS 141525Z 18014KT 25/16 A2999 RMK A01 T02480155  RH  058%=      5-min Rain = 0
KBWS 141530Z 18014KT 26/16 A2999 RMK A01 T02560157  RH  055%=      5-min Rain = 0
KBWS 141535Z 19013G18KT 26/15 A2999 RMK A01 T02610146  RH  050%=      5-min Rain = 0
KBWS 141540Z 19013G18KT 26/15 A2998 RMK A01 T02610150  RH  052%=      5-min Rain = 0
KBWS 141545Z 19014KT 27/15 A2998 RMK A01 T02650151  RH  051%=      5-min Rain = 0
KBWS 141550Z 18014KT 27/15 A2998 RMK A01 T02690148  RH  049%=      5-min Rain = 0
KBWS 141555Z 19014G19KT 27/15 A2998 RMK A01 T02690145  RH  048%=      5-min Rain = 0
KBWS 141600Z 20015G20KT 27/15 A2998 RMK A01 T02720145  RH  047%=      5-min Rain = 0
KBWS 141605Z 20015KT 27/14 A2997 RMK A01 T02740144  RH  046%=      5-min Rain = 0
KBWS 141610Z 19016G21KT 28/14 A2997 RMK A01 T02780144  RH  045%=      5-min Rain = 0
KBWS 141615Z 20018G24KT 28/14 A2997 RMK A01 T02800139  RH  043%=      5-min Rain = 0
KBWS 141620Z 20016G21KT 28/14 A2997 RMK A01 T02810139  RH  042%=      5-min Rain = 0
KBWS 141625Z 20015KT 29/14 A2997 RMK A01 T02860144  RH  043%=      5-min Rain = 0
KBWS 141630Z 19017G24KT 29/14 A2996 RMK A01 T02900139  RH  040%=      5-min Rain = 0
KBWS 141635Z 19019G24KT 29/14 A2996 RMK A01 T02900137  RH  040%=      5-min Rain = 0
KBWS 141640Z 20015KT 29/14 A2996 RMK A01 T02890141  RH  041%=      5-min Rain = 0
KBWS 141645Z 20018G25KT 29/14 A2996 RMK A01 T02940137  RH  039%=      5-min Rain = 0
KBWS 141650Z 20017G22KT 29/14 A2996 RMK A01 T02920135  RH  039%=      5-min Rain = 0
KBWS 141655Z 20018G23KT 29/14 A2996 RMK A01 T02940135  RH  038%=      5-min Rain = 0
KBWS 141700Z 19019G25KT 30/14 A2996 RMK A01 T02950137  RH  039%=      5-min Rain = 0
KBWS 141705Z 19016G21KT 30/15 A2996 RMK A01 T03020145  RH  039%=      5-min Rain = 0
KBWS 141710Z 19018G23KT 31/14 A2995 RMK A01 T03060140  RH  037%=      5-min Rain = 0
KBWS 141715Z 20019KT 30/14 A2996 RMK A01 T03020139  RH  038%=      5-min Rain = 0
KBWS 141720Z 20018G23KT 31/14 A2995 RMK A01 T03050140  RH  037%=      5-min Rain = 0
KBWS 141725Z 20017G23KT 31/14 A2995 RMK A01 T03050142  RH  038%=      5-min Rain = 0
KBWS 141730Z 20017G22KT 31/14 A2995 RMK A01 T03070139  RH  037%=      5-min Rain = 0
KBWS 141735Z 20018G24KT 31/14 A2995 RMK A01 T03050140  RH  037%=      5-min Rain = 0
KBWS 141740Z 20018KT 31/14 A2995 RMK A01 T03060140  RH  037%=      5-min Rain = 0
KBWS 141745Z 20017G23KT 31/14 A2995 RMK A01 T03100141  RH  036%=      5-min Rain = 0
KBWS 141750Z 19018G23KT 31/14 A2995 RMK A01 T03080144  RH  038%=      5-min Rain = 0
KBWS 141755Z 18019G25KT 31/14 A2994 RMK A01 T03120143  RH  037%=      5-min Rain = 0
KBWS 141800Z 20016G22KT 31/15 A2994 RMK A01 T03100145  RH  038%=      5-min Rain = 0
KBWS 141805Z 19018KT 32/14 A2994 RMK A01 T03200142  RH  035%=      5-min Rain = 0
KBWS 141810Z 19018G25KT 32/14 A2993 RMK A01 T03230141  RH  034%=      5-min Rain = 0
KBWS 141815Z 19018G25KT 33/14 A2993 RMK A01 T03250139  RH  033%=      5-min Rain = 0
KBWS 141820Z 21016G21KT 32/14 A2993 RMK A01 T03230135  RH  033%=      5-min Rain = 0
KBWS 141825Z 20016G21KT 33/13 A2993 RMK A01 T03290133  RH  031%=      5-min Rain = 0
KBWS 141830Z 21016G22KT 33/13 A2993 RMK A01 T03280130  RH  031%=      5-min Rain = 0
KBWS 141835Z 22016G21KT 33/13 A2993 RMK A01 T03290132  RH  031%=      5-min Rain = 0
KBWS 141840Z 21015G21KT 33/13 A2993 RMK A01 T03330130  RH  030%=      5-min Rain = 0
KBWS 141845Z 21013G18KT 33/13 A2993 RMK A01 T03320131  RH  030%=      5-min Rain = 0
KBWS 141850Z 20015G20KT 33/13 A2992 RMK A01 T03270130  RH  031%=      5-min Rain = 0
KBWS 141855Z 21016G21KT 33/13 A2992 RMK A01 T03260130  RH  031%=      5-min Rain = 0
KBWS 141900Z 21016G22KT 33/13 A2992 RMK A01 T03280131  RH  031%=      5-min Rain = 0
KBWS 141905Z 19015KT 33/13 A2992 RMK A01 T03330133  RH  030%=      5-min Rain = 0
KBWS 141910Z 19016KT 34/13 A2991 RMK A01 T03420132  RH  029%=      5-min Rain = 0
KBWS 141915Z 20016G23KT 34/13 A2991 RMK A01 T03390130  RH  029%=      5-min Rain = 0
KBWS 141920Z 20017KT 33/13 A2991 RMK A01 T03320130  RH  030%=      5-min Rain = 0
KBWS 141925Z 21016G21KT 33/13 A2991 RMK A01 T03300126  RH  030%=      5-min Rain = 0
KBWS 141930Z 20014G22KT 33/13 A2991 RMK A01 T03320128  RH  030%=      5-min Rain = 0
KBWS 141935Z 21013G20KT 34/13 A299 RMK A01 T03360127  RH  029%=      5-min Rain = 0
KBWS 141940Z 20013G19KT 34/12 A299 RMK A01 T03350124  RH  028%=      5-min Rain = 0
KBWS 141945Z 20014G21KT 34/12 A299 RMK A01 T03360124  RH  028%=      5-min Rain = 0
KBWS 141950Z 19015G20KT 35/13 A299 RMK A01 T03450126  RH  027%=      5-min Rain = 0
KBWS 141955Z 20014G20KT 35/13 A2989 RMK A01 T03490126  RH  027%=      5-min Rain = 0
KBWS 142000Z 19012G21KT 35/12 A2989 RMK A01 T03480123  RH  026%=      5-min Rain = 0
KBWS 142005Z 19015G22KT 35/12 A2989 RMK A01 T03490123  RH  026%=      5-min Rain = 0
KBWS 142010Z 19014KT 35/12 A2989 RMK A01 T03490121  RH  026%=      5-min Rain = 0
KBWS 142015Z 19013G20KT 35/12 A2988 RMK A01 T03470120  RH  026%=      5-min Rain = 0
KBWS 142020Z 19014G21KT 34/12 A2988 RMK A01 T03430119  RH  026%=      5-min Rain = 0
KBWS 142025Z 19014G20KT 35/12 A2989 RMK A01 T03460119  RH  026%=      5-min Rain = 0
KBWS 142030Z 19016G21KT 35/12 A2988 RMK A01 T03460115  RH  025%=      5-min Rain = 0
KBWS 142035Z 19016G23KT 34/12 A2988 RMK A01 T03420116  RH  026%=      5-min Rain = 0
KBWS 142040Z 19015G22KT 34/12 A2988 RMK A01 T03440116  RH  026%=      5-min Rain = 0
KBWS 142045Z 19015G21KT 35/12 A2988 RMK A01 T03450116  RH  025%=      5-min Rain = 0
KBWS 142050Z 20015G22KT 35/12 A2988 RMK A01 T03500116  RH  025%=      5-min Rain = 0
KBWS 142055Z 19016G21KT 35/11 A2988 RMK A01 T03540114  RH  024%=      5-min Rain = 0
KBWS 142100Z 21013G18KT 36/12 A2988 RMK A01 T03590116  RH  024%=      5-min Rain = 0
KBWS 142105Z 21014KT 36/12 A2988 RMK A01 T03550115  RH  024%=      5-min Rain = 0
KBWS 142110Z 22015G21KT 36/11 A2987 RMK A01 T03550113  RH  024%=      5-min Rain = 0
KBWS 142115Z 21014G20KT 36/11 A2987 RMK A01 T03560113  RH  023%=      5-min Rain = 0
KBWS 142120Z 20014G19KT 36/11 A2987 RMK A01 T03570109  RH  023%=      5-min Rain = 0
KBWS 142125Z 20013G18KT 35/11 A2987 RMK A01 T03490105  RH  023%=      5-min Rain = 0
KBWS 142130Z 21013G20KT 35/11 A2987 RMK A01 T03500109  RH  024%=      5-min Rain = 0
KBWS 142135Z 20016G22KT 36/11 A2987 RMK A01 T03570113  RH  023%=      5-min Rain = 0
KBWS 142140Z 19015G21KT 36/11 A2986 RMK A01 T03570111  RH  023%=      5-min Rain = 0
KBWS 142145Z 21013G22KT 36/11 A2986 RMK A01 T03630107  RH  022%=      5-min Rain = 0
KBWS 142150Z 20013G22KT 36/10 A2986 RMK A01 T03590103  RH  022%=      5-min Rain = 0
KBWS 142155Z 20014KT 36/11 A2986 RMK A01 T03590107  RH  022%=      5-min Rain = 0
KBWS 142200Z 19014G19KT 36/11 A2986 RMK A01 T03590110  RH  023%=      5-min Rain = 0
KBWS 142205Z 20014G20KT 36/11 A2986 RMK A01 T03630109  RH  022%=      5-min Rain = 0
KBWS 142210Z 20017G23KT 36/11 A2985 RMK A01 T03590108  RH  022%=      5-min Rain = 0
KBWS 142215Z 20016G22KT 35/11 A2985 RMK A01 T03520108  RH  023%=      5-min Rain = 0
KBWS 142220Z 18016G21KT 35/11 A2985 RMK A01 T03530108  RH  023%=      5-min Rain = 0
KBWS 142225Z 18013G19KT 36/11 A2985 RMK A01 T03570108  RH  022%=      5-min Rain = 0
KBWS 142230Z 20017G22KT 36/11 A2984 RMK A01 T03610108  RH  022%=      5-min Rain = 0
KBWS 142235Z 21016KT 36/10 A2984 RMK A01 T03590104  RH  022%=      5-min Rain = 0
KBWS 142240Z 19016KT 36/11 A2984 RMK A01 T03590110  RH  023%=      5-min Rain = 0
KBWS 142245Z 20015KT 36/11 A2984 RMK A01 T03610107  RH  022%=      5-min Rain = 0
KBWS 142250Z 20016G25KT 36/11 A2984 RMK A01 T03560107  RH  022%=      5-min Rain = 0
KBWS 142255Z 20015G25KT 36/11 A2984 RMK A01 T03570107  RH  022%=      5-min Rain = 0
KBWS 142300Z 19017KT 35/11 A2983 RMK A01 T03500106  RH  023%=      5-min Rain = 0
KBWS 142305Z 19014KT 35/10 A2983 RMK A01 T03450104  RH  023%=      5-min Rain = 0
KBWS 142310Z 21014G19KT 35/11 A2983 RMK A01 T03460105  RH  023%=      5-min Rain = 0
KBWS 142315Z 21014KT 34/10 A2983 RMK A01 T03440102  RH  023%=      5-min Rain = 0
KBWS 142320Z 20014G19KT 34/10 A2983 RMK A01 T03440102  RH  023%=      5-min Rain = 0
KBWS 142325Z 19011G18KT 35/10 A2982 RMK A01 T03450104  RH  023%=      5-min Rain = 0
KBWS 142330Z 20013KT 35/10 A2982 RMK A01 T03480104  RH  023%=      5-min Rain = 0
KBWS 142335Z 18015G23KT 36/10 A2982 RMK A01 T03560103  RH  022%=      5-min Rain = 0
KBWS 142340Z 19016G22KT 36/10 A2981 RMK A01 T03580102  RH  021%=      5-min Rain = 0
KBWS 142345Z 19016KT 35/10 A2981 RMK A01 T03540100  RH  022%=      5-min Rain = 0
KBWS 142350Z 19014G19KT 36/10 A2981 RMK A01 T03560101  RH  022%=      5-min Rain = 0
KBWS 142355Z 19017KT 36/10 A2981 RMK A01 T03550097  RH  021%=      5-min Rain = 0
KBWS 150000Z 20014KT 35/10 A298 RMK A01 T03540096  RH  021%=      5-min Rain = 0
KBWS 150005Z 19014G20KT 35/10 A298 RMK A01 T03530097  RH  021%=      5-min Rain = 0
KBWS 150010Z 19014G21KT 35/10 A298 RMK A01 T03510098  RH  022%=      5-min Rain = 0
KBWS 150015Z 19015KT 35/10 A298 RMK A01 T03480096  RH  022%=      5-min Rain = 0
KBWS 150020Z 18015KT 35/09 A298 RMK A01 T03450093  RH  022%=      5-min Rain = 0
KBWS 150025Z 18016KT 34/09 A298 RMK A01 T03440092  RH  022%=      5-min Rain = 0
KBWS 150030Z 18014KT 35/09 A298 RMK A01 T03450093  RH  022%=      5-min Rain = 0
KBWS 150035Z 18013KT 34/09 A298 RMK A01 T03440094  RH  022%=      5-min Rain = 0
KBWS 150040Z 17015KT 35/09 A298 RMK A01 T03450093  RH  022%=      5-min Rain = 0
KBWS 150045Z 17014KT 34/09 A298 RMK A01 T03430092  RH  022%=      5-min Rain = 0
KBWS 150050Z 17015KT 34/09 A298 RMK A01 T03420090  RH  022%=      5-min Rain = 0
KBWS 150055Z 17015KT 34/09 A298 RMK A01 T03400090  RH  022%=      5-min Rain = 0
KBWS 150100Z 17015KT 34/09 A298 RMK A01 T03390088  RH  022%=      5-min Rain = 0
KBWS 150105Z 17015KT 34/09 A298 RMK A01 T03380085  RH  021%=      5-min Rain = 0
KBWS 150110Z 18014KT 34/09 A298 RMK A01 T03380085  RH  021%=      5-min Rain = 0
KBWS 150115Z 18014G19KT 34/09 A298 RMK A01 T03370087  RH  022%=      5-min Rain = 0
KBWS 150120Z 18014KT 34/09 A2981 RMK A01 T03360089  RH  022%=      5-min Rain = 0
KBWS 150125Z 18013KT 34/09 A2981 RMK A01 T03350092  RH  023%=      5-min Rain = 0
KBWS 150130Z 18015G20KT 33/10 A2981 RMK A01 T03330098  RH  024%=      5-min Rain = 0
KBWS 150135Z 17018G24KT 33/12 A2981 RMK A01 T03310124  RH  029%=      5-min Rain = 0
KBWS 150140Z 17024KT 33/15 A2981 RMK A01 T03250151  RH  036%=      5-min Rain = 0
KBWS 150145Z 18021G30KT 32/16 A2981 RMK A01 T03210156  RH  038%=      5-min Rain = 0
KBWS 150150Z 18025G31KT 32/16 A2982 RMK A01 T03160160  RH  040%=      5-min Rain = 0
KBWS 150155Z 18025G33KT 31/16 A2982 RMK A01 T03110162  RH  042%=      5-min Rain = 0
KBWS 150200Z 18024KT 31/16 A2982 RMK A01 T03070163  RH  043%=      5-min Rain = 0
KBWS 150205Z 18023KT 30/16 A2983 RMK A01 T03040164  RH  044%=      5-min Rain = 0
KBWS 150210Z 18023G29KT 30/17 A2983 RMK A01 T03020166  RH  045%=      5-min Rain = 0
KBWS 150215Z 18022G30KT 30/17 A2983 RMK A01 T03000166  RH  046%=      5-min Rain = 0
KBWS 150220Z 18022G29KT 30/17 A2983 RMK A01 T02980167  RH  046%=      5-min Rain = 0
KBWS 150225Z 18024G29KT 30/17 A2983 RMK A01 T02970168  RH  047%=      5-min Rain = 0
KBWS 150230Z 17021G27KT 30/17 A2983 RMK A01 T02950168  RH  048%=      5-min Rain = 0
KBWS 150235Z 17022G28KT 29/17 A2983 RMK A01 T02930169  RH  048%=      5-min Rain = 0
KBWS 150240Z 17019KT 29/17 A2983 RMK A01 T02910169  RH  049%=      5-min Rain = 0
KBWS 150245Z 17020G26KT 29/17 A2984 RMK A01 T02890169  RH  050%=      5-min Rain = 0
KBWS 150250Z 17023G28KT 29/17 A2984 RMK A01 T02880170  RH  050%=      5-min Rain = 0
KBWS 150255Z 17021G26KT 29/17 A2984 RMK A01 T02870170  RH  050%=      5-min Rain = 0
KBWS 150300Z 17020G27KT 29/17 A2984 RMK A01 T02850170  RH  051%=      5-min Rain = 0
KBWS 150305Z 17020G25KT 28/17 A2984 RMK A01 T02830170  RH  051%=      5-min Rain = 0
KBWS 150310Z 17019KT 28/17 A2985 RMK A01 T02810170  RH  052%=      5-min Rain = 0
KBWS 150315Z 17018G24KT 28/17 A2985 RMK A01 T02790170  RH  053%=      5-min Rain = 0
KBWS 150320Z 17019G24KT 28/17 A2985 RMK A01 T02770171  RH  053%=      5-min Rain = 0
KBWS 150325Z 17018G23KT 28/17 A2985 RMK A01 T02760171  RH  054%=      5-min Rain = 0
KBWS 150330Z 17018KT 27/17 A2985 RMK A01 T02740171  RH  055%=      5-min Rain = 0
KBWS 150335Z 17017G22KT 27/17 A2986 RMK A01 T02730171  RH  055%=      5-min Rain = 0
KBWS 150340Z 18017G22KT 27/17 A2986 RMK A01 T02720172  RH  056%=      5-min Rain = 0
KBWS 150345Z 18016G21KT 27/17 A2986 RMK A01 T02700172  RH  056%=      5-min Rain = 0
KBWS 150350Z 18017KT 27/17 A2986 RMK A01 T02690172  RH  057%=      5-min Rain = 0
KBWS 150355Z 18016KT 27/17 A2987 RMK A01 T02670172  RH  057%=      5-min Rain = 0
KBWS 150400Z 18016G21KT 27/17 A2986 RMK A01 T02660173  RH  058%=      5-min Rain = 0
KBWS 150405Z 18016KT 27/17 A2987 RMK A01 T02650173  RH  058%=      5-min Rain = 0
KBWS 150410Z 18016G21KT 26/17 A2987 RMK A01 T02630173  RH  059%=      5-min Rain = 0
KBWS 150415Z 18017KT 26/17 A2987 RMK A01 T02620174  RH  059%=      5-min Rain = 0
KBWS 150420Z 18016KT 26/17 A2987 RMK A01 T02610174  RH  060%=      5-min Rain = 0
KBWS 150425Z 18017G22KT 26/18 A2987 RMK A01 T02600175  RH  061%=      5-min Rain = 0
KBWS 150430Z 18017G22KT 26/18 A2987 RMK A01 T02600175  RH  061%=      5-min Rain = 0
KBWS 150435Z 18018KT 26/18 A2988 RMK A01 T02600176  RH  061%=      5-min Rain = 0
KBWS 150440Z 18017G23KT 26/18 A2987 RMK A01 T02590176  RH  062%=      5-min Rain = 0
KBWS 150445Z 18017G23KT 26/18 A2987 RMK A01 T02580176  RH  062%=      5-min Rain = 0
KBWS 150450Z 18017G22KT 26/18 A2987 RMK A01 T02570176  RH  062%=      5-min Rain = 0
KBWS 150455Z 18016KT 26/18 A2987 RMK A01 T02560177  RH  063%=      5-min Rain = 0

Page generated in 0.0153 seconds.